sensor_id;sensor_type;location;lat;lon;timestamp;P1;durP1;ratioP1;P2;durP2;ratioP2
37781;SDS011;23621;50.878;4.584;2023-03-14T00:01:34;2.28;;;1.23;;
37781;SDS011;23621;50.878;4.584;2023-03-14T00:04:03;5.32;;;1.95;;
37781;SDS011;23621;50.878;4.584;2023-03-14T00:06:31;2.38;;;1.40;;
37781;SDS011;23621;50.878;4.584;2023-03-14T00:08:58;3.35;;;1.40;;
37781;SDS011;23621;50.878;4.584;2023-03-14T00:11:25;3.83;;;1.70;;
37781;SDS011;23621;50.878;4.584;2023-03-14T00:14:10;4.32;;;1.63;;
37781;SDS011;23621;50.878;4.584;2023-03-14T00:16:38;3.25;;;1.40;;
37781;SDS011;23621;50.878;4.584;2023-03-14T00:19:05;5.47;;;1.52;;
37781;SDS011;23621;50.878;4.584;2023-03-14T00:21:35;2.85;;;1.30;;
37781;SDS011;23621;50.878;4.584;2023-03-14T00:24:02;4.32;;;1.80;;
37781;SDS011;23621;50.878;4.584;2023-03-14T00:26:29;5.47;;;1.77;;
37781;SDS011;23621;50.878;4.584;2023-03-14T00:28:56;5.95;;;2.03;;
37781;SDS011;23621;50.878;4.584;2023-03-14T00:31:23;5.15;;;1.75;;
37781;SDS011;23621;50.878;4.584;2023-03-14T00:34:08;2.80;;;1.90;;
37781;SDS011;23621;50.878;4.584;2023-03-14T00:36:35;3.75;;;1.60;;
37781;SDS011;23621;50.878;4.584;2023-03-14T00:39:02;5.43;;;1.70;;
37781;SDS011;23621;50.878;4.584;2023-03-14T00:41:29;3.45;;;1.52;;
37781;SDS011;23621;50.878;4.584;2023-03-14T00:44:15;4.85;;;1.77;;
37781;SDS011;23621;50.878;4.584;2023-03-14T00:46:42;4.75;;;1.42;;
37781;SDS011;23621;50.878;4.584;2023-03-14T00:49:27;4.38;;;1.98;;
37781;SDS011;23621;50.878;4.584;2023-03-14T00:51:54;5.43;;;1.67;;
37781;SDS011;23621;50.878;4.584;2023-03-14T00:54:21;6.28;;;2.33;;
37781;SDS011;23621;50.878;4.584;2023-03-14T00:56:48;3.72;;;1.80;;
37781;SDS011;23621;50.878;4.584;2023-03-14T00:59:15;2.17;;;1.35;;
37781;SDS011;23621;50.878;4.584;2023-03-14T01:01:43;4.20;;;1.90;;
37781;SDS011;23621;50.878;4.584;2023-03-14T01:04:29;6.68;;;2.22;;
37781;SDS011;23621;50.878;4.584;2023-03-14T01:06:57;5.05;;;1.73;;
37781;SDS011;23621;50.878;4.584;2023-03-14T01:09:24;3.72;;;1.75;;
37781;SDS011;23621;50.878;4.584;2023-03-14T01:11:51;5.60;;;1.67;;
37781;SDS011;23621;50.878;4.584;2023-03-14T01:14:18;7.60;;;2.08;;
37781;SDS011;23621;50.878;4.584;2023-03-14T01:16:52;4.03;;;1.88;;
37781;SDS011;23621;50.878;4.584;2023-03-14T01:19:19;4.88;;;1.90;;
37781;SDS011;23621;50.878;4.584;2023-03-14T01:21:46;5.22;;;1.90;;
37781;SDS011;23621;50.878;4.584;2023-03-14T01:24:32;4.72;;;2.20;;
37781;SDS011;23621;50.878;4.584;2023-03-14T01:26:59;4.90;;;2.00;;
37781;SDS011;23621;50.878;4.584;2023-03-14T01:29:44;7.10;;;2.08;;
37781;SDS011;23621;50.878;4.584;2023-03-14T01:32:13;7.32;;;2.08;;
37781;SDS011;23621;50.878;4.584;2023-03-14T01:34:40;6.20;;;2.35;;
37781;SDS011;23621;50.878;4.584;2023-03-14T01:37:08;4.35;;;1.80;;
37781;SDS011;23621;50.878;4.584;2023-03-14T01:39:38;3.33;;;1.92;;
37781;SDS011;23621;50.878;4.584;2023-03-14T01:42:05;4.35;;;2.00;;
37781;SDS011;23621;50.878;4.584;2023-03-14T01:44:48;5.45;;;1.88;;
37781;SDS011;23621;50.878;4.584;2023-03-14T01:47:20;6.53;;;2.10;;
37781;SDS011;23621;50.878;4.584;2023-03-14T01:50:06;5.32;;;1.80;;
37781;SDS011;23621;50.878;4.584;2023-03-14T01:55:11;3.85;;;1.55;;
37781;SDS011;23621;50.878;4.584;2023-03-14T01:57:41;5.72;;;1.70;;
37781;SDS011;23621;50.878;4.584;2023-03-14T02:00:13;3.95;;;1.65;;
37781;SDS011;23621;50.878;4.584;2023-03-14T02:02:47;5.43;;;1.55;;
37781;SDS011;23621;50.878;4.584;2023-03-14T02:05:19;3.65;;;1.40;;
37781;SDS011;23621;50.878;4.584;2023-03-14T02:07:50;3.58;;;1.30;;
37781;SDS011;23621;50.878;4.584;2023-03-14T02:10:21;3.22;;;1.38;;
37781;SDS011;23621;50.878;4.584;2023-03-14T02:12:51;3.72;;;1.23;;
37781;SDS011;23621;50.878;4.584;2023-03-14T02:15:21;2.53;;;1.20;;
37781;SDS011;23621;50.878;4.584;2023-03-14T02:17:49;1.90;;;1.13;;
37781;SDS011;23621;50.878;4.584;2023-03-14T02:20:22;1.50;;;1.00;;
37781;SDS011;23621;50.878;4.584;2023-03-14T02:22:51;2.10;;;1.30;;
37781;SDS011;23621;50.878;4.584;2023-03-14T02:28:06;4.25;;;1.50;;
37781;SDS011;23621;50.878;4.584;2023-03-14T02:30:53;2.78;;;1.27;;
37781;SDS011;23621;50.878;4.584;2023-03-14T02:33:20;3.13;;;1.10;;
37781;SDS011;23621;50.878;4.584;2023-03-14T02:35:53;1.25;;;1.10;;
37781;SDS011;23621;50.878;4.584;2023-03-14T02:38:29;3.38;;;1.48;;
37781;SDS011;23621;50.878;4.584;2023-03-14T02:41:22;4.15;;;1.60;;
37781;SDS011;23621;50.878;4.584;2023-03-14T02:43:49;1.40;;;1.27;;
37781;SDS011;23621;50.878;4.584;2023-03-14T02:46:34;3.75;;;1.40;;
37781;SDS011;23621;50.878;4.584;2023-03-14T02:49:02;2.80;;;1.25;;
37781;SDS011;23621;50.878;4.584;2023-03-14T02:51:33;2.50;;;1.30;;
37781;SDS011;23621;50.878;4.584;2023-03-14T02:54:04;2.30;;;1.08;;
37781;SDS011;23621;50.878;4.584;2023-03-14T02:56:31;2.88;;;1.40;;
37781;SDS011;23621;50.878;4.584;2023-03-14T02:58:58;2.95;;;1.33;;
37781;SDS011;23621;50.878;4.584;2023-03-14T03:01:44;2.80;;;1.40;;
37781;SDS011;23621;50.878;4.584;2023-03-14T03:04:11;3.40;;;1.63;;
37781;SDS011;23621;50.878;4.584;2023-03-14T03:06:47;2.38;;;1.20;;
37781;SDS011;23621;50.878;4.584;2023-03-14T03:09:16;3.80;;;1.40;;
37781;SDS011;23621;50.878;4.584;2023-03-14T03:11:55;1.58;;;1.30;;
37781;SDS011;23621;50.878;4.584;2023-03-14T03:14:22;4.88;;;1.70;;
37781;SDS011;23621;50.878;4.584;2023-03-14T03:16:49;3.10;;;1.55;;
37781;SDS011;23621;50.878;4.584;2023-03-14T03:19:16;3.78;;;1.35;;
37781;SDS011;23621;50.878;4.584;2023-03-14T03:22:02;3.40;;;1.48;;
37781;SDS011;23621;50.878;4.584;2023-03-14T03:24:29;3.08;;;1.30;;
37781;SDS011;23621;50.878;4.584;2023-03-14T03:27:14;3.33;;;2.03;;
37781;SDS011;23621;50.878;4.584;2023-03-14T03:29:42;5.40;;;1.70;;
37781;SDS011;23621;50.878;4.584;2023-03-14T03:32:09;4.35;;;1.40;;
37781;SDS011;23621;50.878;4.584;2023-03-14T03:34:35;3.88;;;2.08;;
37781;SDS011;23621;50.878;4.584;2023-03-14T03:37:02;3.08;;;2.03;;
37781;SDS011;23621;50.878;4.584;2023-03-14T03:39:29;5.45;;;1.95;;
37781;SDS011;23621;50.878;4.584;2023-03-14T03:41:56;4.68;;;1.83;;
37781;SDS011;23621;50.878;4.584;2023-03-14T03:44:23;5.85;;;2.97;;
37781;SDS011;23621;50.878;4.584;2023-03-14T03:47:09;5.32;;;1.80;;
37781;SDS011;23621;50.878;4.584;2023-03-14T03:49:36;4.50;;;2.17;;
37781;SDS011;23621;50.878;4.584;2023-03-14T03:52:11;2.65;;;1.92;;
37781;SDS011;23621;50.878;4.584;2023-03-14T03:54:38;3.58;;;2.00;;
37781;SDS011;23621;50.878;4.584;2023-03-14T03:57:06;4.97;;;2.20;;
37781;SDS011;23621;50.878;4.584;2023-03-14T03:59:33;5.65;;;1.70;;
37781;SDS011;23621;50.878;4.584;2023-03-14T04:02:19;3.78;;;1.88;;
37781;SDS011;23621;50.878;4.584;2023-03-14T04:04:46;3.92;;;1.90;;
37781;SDS011;23621;50.878;4.584;2023-03-14T04:07:13;2.88;;;1.60;;
37781;SDS011;23621;50.878;4.584;2023-03-14T04:09:41;4.75;;;1.73;;
37781;SDS011;23621;50.878;4.584;2023-03-14T04:12:08;5.90;;;1.90;;
37781;SDS011;23621;50.878;4.584;2023-03-14T04:14:37;3.45;;;1.60;;
37781;SDS011;23621;50.878;4.584;2023-03-14T04:17:04;2.83;;;1.50;;
37781;SDS011;23621;50.878;4.584;2023-03-14T04:19:31;5.43;;;1.92;;
37781;SDS011;23621;50.878;4.584;2023-03-14T04:21:59;4.80;;;1.67;;
37781;SDS011;23621;50.878;4.584;2023-03-14T04:24:26;3.58;;;2.20;;
37781;SDS011;23621;50.878;4.584;2023-03-14T04:27:11;4.32;;;1.65;;
37781;SDS011;23621;50.878;4.584;2023-03-14T04:29:38;3.38;;;2.00;;
37781;SDS011;23621;50.878;4.584;2023-03-14T04:32:24;4.85;;;2.28;;
37781;SDS011;23621;50.878;4.584;2023-03-14T04:34:51;5.40;;;2.15;;
37781;SDS011;23621;50.878;4.584;2023-03-14T04:37:18;4.40;;;2.13;;
37781;SDS011;23621;50.878;4.584;2023-03-14T04:39:45;4.20;;;1.83;;
37781;SDS011;23621;50.878;4.584;2023-03-14T04:42:12;6.22;;;1.80;;
37781;SDS011;23621;50.878;4.584;2023-03-14T04:44:58;4.25;;;2.13;;
37781;SDS011;23621;50.878;4.584;2023-03-14T04:47:25;5.30;;;1.70;;
37781;SDS011;23621;50.878;4.584;2023-03-14T04:49:52;2.20;;;1.60;;
37781;SDS011;23621;50.878;4.584;2023-03-14T04:52:20;2.90;;;1.33;;
37781;SDS011;23621;50.878;4.584;2023-03-14T04:54:46;3.05;;;1.60;;
37781;SDS011;23621;50.878;4.584;2023-03-14T04:57:16;4.25;;;1.90;;
37781;SDS011;23621;50.878;4.584;2023-03-14T04:59:58;3.30;;;1.92;;
37781;SDS011;23621;50.878;4.584;2023-03-14T05:02:25;3.38;;;1.73;;
37781;SDS011;23621;50.878;4.584;2023-03-14T05:04:53;4.65;;;2.00;;
37781;SDS011;23621;50.878;4.584;2023-03-14T05:07:20;2.80;;;1.73;;
37781;SDS011;23621;50.878;4.584;2023-03-14T05:09:47;3.35;;;1.80;;
37781;SDS011;23621;50.878;4.584;2023-03-14T05:12:14;2.00;;;1.80;;
37781;SDS011;23621;50.878;4.584;2023-03-14T05:14:47;2.60;;;1.83;;
37781;SDS011;23621;50.878;4.584;2023-03-14T05:17:14;3.40;;;2.05;;
37781;SDS011;23621;50.878;4.584;2023-03-14T05:19:59;3.28;;;1.92;;
37781;SDS011;23621;50.878;4.584;2023-03-14T05:22:27;2.00;;;1.85;;
37781;SDS011;23621;50.878;4.584;2023-03-14T05:24:56;4.13;;;2.28;;
37781;SDS011;23621;50.878;4.584;2023-03-14T05:27:25;3.20;;;2.03;;
37781;SDS011;23621;50.878;4.584;2023-03-14T05:29:52;2.70;;;2.00;;
37781;SDS011;23621;50.878;4.584;2023-03-14T05:32:19;2.40;;;2.20;;
37781;SDS011;23621;50.878;4.584;2023-03-14T05:34:46;3.70;;;2.00;;
37781;SDS011;23621;50.878;4.584;2023-03-14T05:37:14;3.33;;;2.30;;
37781;SDS011;23621;50.878;4.584;2023-03-14T05:39:41;4.57;;;2.17;;
37781;SDS011;23621;50.878;4.584;2023-03-14T05:42:08;2.53;;;2.30;;
37781;SDS011;23621;50.878;4.584;2023-03-14T05:44:53;2.03;;;1.83;;
37781;SDS011;23621;50.878;4.584;2023-03-14T05:47:21;2.78;;;2.13;;
37781;SDS011;23621;50.878;4.584;2023-03-14T05:50:03;3.25;;;2.10;;
37781;SDS011;23621;50.878;4.584;2023-03-14T05:52:30;2.45;;;2.00;;
37781;SDS011;23621;50.878;4.584;2023-03-14T05:54:57;3.33;;;2.30;;
37781;SDS011;23621;50.878;4.584;2023-03-14T05:57:25;3.63;;;1.90;;
37781;SDS011;23621;50.878;4.584;2023-03-14T05:59:52;1.70;;;1.60;;
37781;SDS011;23621;50.878;4.584;2023-03-14T06:02:19;3.55;;;2.17;;
37781;SDS011;23621;50.878;4.584;2023-03-14T06:04:46;2.33;;;1.67;;
37781;SDS011;23621;50.878;4.584;2023-03-14T06:07:13;3.38;;;1.92;;
37781;SDS011;23621;50.878;4.584;2023-03-14T06:09:41;1.70;;;1.60;;
37781;SDS011;23621;50.878;4.584;2023-03-14T06:12:26;1.80;;;1.70;;
37781;SDS011;23621;50.878;4.584;2023-03-14T06:14:54;2.03;;;1.80;;
37781;SDS011;23621;50.878;4.584;2023-03-14T06:17:40;2.20;;;2.00;;
37781;SDS011;23621;50.878;4.584;2023-03-14T06:20:07;2.10;;;1.90;;
37781;SDS011;23621;50.878;4.584;2023-03-14T06:22:36;2.17;;;1.80;;
37781;SDS011;23621;50.878;4.584;2023-03-14T06:25:04;1.75;;;1.60;;
37781;SDS011;23621;50.878;4.584;2023-03-14T06:27:32;2.78;;;1.80;;
37781;SDS011;23621;50.878;4.584;2023-03-14T06:30:03;3.72;;;1.80;;
37781;SDS011;23621;50.878;4.584;2023-03-14T06:32:30;2.55;;;1.90;;
37781;SDS011;23621;50.878;4.584;2023-03-14T06:35:00;2.08;;;1.90;;
37781;SDS011;23621;50.878;4.584;2023-03-14T06:37:27;2.25;;;2.05;;
37781;SDS011;23621;50.878;4.584;2023-03-14T06:40:01;2.22;;;2.03;;
37781;SDS011;23621;50.878;4.584;2023-03-14T06:42:28;2.10;;;1.90;;
37781;SDS011;23621;50.878;4.584;2023-03-14T06:44:56;2.50;;;2.10;;
37781;SDS011;23621;50.878;4.584;2023-03-14T06:47:23;2.00;;;1.80;;
37781;SDS011;23621;50.878;4.584;2023-03-14T06:50:08;1.60;;;1.50;;
37781;SDS011;23621;50.878;4.584;2023-03-14T06:52:36;2.00;;;1.80;;
37781;SDS011;23621;50.878;4.584;2023-03-14T06:55:26;1.95;;;1.77;;
37781;SDS011;23621;50.878;4.584;2023-03-14T06:57:53;1.77;;;1.60;;
37781;SDS011;23621;50.878;4.584;2023-03-14T07:00:29;2.28;;;2.08;;
37781;SDS011;23621;50.878;4.584;2023-03-14T07:02:56;1.50;;;1.40;;
37781;SDS011;23621;50.878;4.584;2023-03-14T07:05:23;1.10;;;1.10;;
37781;SDS011;23621;50.878;4.584;2023-03-14T07:07:50;1.75;;;1.00;;
37781;SDS011;23621;50.878;4.584;2023-03-14T07:10:17;0.88;;;0.88;;
37781;SDS011;23621;50.878;4.584;2023-03-14T07:12:44;0.90;;;0.90;;
37781;SDS011;23621;50.878;4.584;2023-03-14T07:15:11;2.00;;;1.25;;
37781;SDS011;23621;50.878;4.584;2023-03-14T07:17:49;1.48;;;1.08;;
37781;SDS011;23621;50.878;4.584;2023-03-14T07:20:16;1.23;;;1.13;;
37781;SDS011;23621;50.878;4.584;2023-03-14T07:22:43;1.65;;;1.30;;
37781;SDS011;23621;50.878;4.584;2023-03-14T07:25:13;1.30;;;1.20;;
37781;SDS011;23621;50.878;4.584;2023-03-14T07:27:42;1.85;;;1.33;;
37781;SDS011;23621;50.878;4.584;2023-03-14T07:30:10;3.08;;;1.67;;
37781;SDS011;23621;50.878;4.584;2023-03-14T07:32:38;1.50;;;1.40;;
37781;SDS011;23621;50.878;4.584;2023-03-14T07:35:05;3.08;;;1.70;;
37781;SDS011;23621;50.878;4.584;2023-03-14T07:37:32;1.75;;;1.60;;
37781;SDS011;23621;50.878;4.584;2023-03-14T07:39:59;3.88;;;2.00;;
37781;SDS011;23621;50.878;4.584;2023-03-14T07:42:26;3.65;;;1.92;;
37781;SDS011;23621;50.878;4.584;2023-03-14T07:45:02;6.47;;;2.40;;
37781;SDS011;23621;50.878;4.584;2023-03-14T07:47:29;5.20;;;2.55;;
37781;SDS011;23621;50.878;4.584;2023-03-14T07:49:57;2.25;;;1.70;;
37781;SDS011;23621;50.878;4.584;2023-03-14T07:52:26;1.67;;;1.58;;
37781;SDS011;23621;50.878;4.584;2023-03-14T07:54:54;2.17;;;1.98;;
37781;SDS011;23621;50.878;4.584;2023-03-14T07:57:21;2.13;;;1.90;;
37781;SDS011;23621;50.878;4.584;2023-03-14T07:59:48;2.88;;;2.00;;
37781;SDS011;23621;50.878;4.584;2023-03-14T08:02:18;2.40;;;2.20;;
37781;SDS011;23621;50.878;4.584;2023-03-14T08:05:07;3.13;;;2.13;;
37781;SDS011;23621;50.878;4.584;2023-03-14T08:07:35;3.38;;;2.38;;
37781;SDS011;23621;50.878;4.584;2023-03-14T08:10:21;2.42;;;1.98;;
37781;SDS011;23621;50.878;4.584;2023-03-14T08:12:49;2.10;;;1.90;;
37781;SDS011;23621;50.878;4.584;2023-03-14T08:15:17;3.42;;;2.15;;
37781;SDS011;23621;50.878;4.584;2023-03-14T08:17:44;3.08;;;2.33;;
37781;SDS011;23621;50.878;4.584;2023-03-14T08:20:14;3.33;;;2.70;;
37781;SDS011;23621;50.878;4.584;2023-03-14T08:23:00;2.90;;;2.00;;
37781;SDS011;23621;50.878;4.584;2023-03-14T08:25:28;2.22;;;1.92;;
37781;SDS011;23621;50.878;4.584;2023-03-14T08:27:55;3.47;;;2.30;;
37781;SDS011;23621;50.878;4.584;2023-03-14T08:30:22;2.42;;;1.90;;
37781;SDS011;23621;50.878;4.584;2023-03-14T08:32:53;2.40;;;2.20;;
37781;SDS011;23621;50.878;4.584;2023-03-14T08:35:20;2.03;;;1.90;;
37781;SDS011;23621;50.878;4.584;2023-03-14T08:37:50;2.58;;;2.20;;
37781;SDS011;23621;50.878;4.584;2023-03-14T08:40:18;2.13;;;1.90;;
37781;SDS011;23621;50.878;4.584;2023-03-14T08:42:45;2.65;;;2.45;;
37781;SDS011;23621;50.878;4.584;2023-03-14T08:45:12;5.32;;;2.67;;
37781;SDS011;23621;50.878;4.584;2023-03-14T08:47:59;2.83;;;2.60;;
37781;SDS011;23621;50.878;4.584;2023-03-14T08:50:26;2.72;;;2.22;;
37781;SDS011;23621;50.878;4.584;2023-03-14T08:53:11;3.55;;;2.70;;
37781;SDS011;23621;50.878;4.584;2023-03-14T08:55:38;2.67;;;2.47;;
37781;SDS011;23621;50.878;4.584;2023-03-14T08:58:05;3.15;;;2.58;;
37781;SDS011;23621;50.878;4.584;2023-03-14T09:00:32;3.42;;;2.80;;
37781;SDS011;23621;50.878;4.584;2023-03-14T09:02:59;2.67;;;2.30;;
37781;SDS011;23621;50.878;4.584;2023-03-14T09:05:26;3.33;;;2.13;;
37781;SDS011;23621;50.878;4.584;2023-03-14T09:07:56;4.30;;;2.53;;
37781;SDS011;23621;50.878;4.584;2023-03-14T09:10:35;3.35;;;2.40;;
37781;SDS011;23621;50.878;4.584;2023-03-14T09:13:02;2.78;;;2.33;;
37781;SDS011;23621;50.878;4.584;2023-03-14T09:15:29;3.08;;;2.78;;
37781;SDS011;23621;50.878;4.584;2023-03-14T09:17:56;2.95;;;2.50;;
37781;SDS011;23621;50.878;4.584;2023-03-14T09:20:24;2.70;;;2.47;;
37781;SDS011;23621;50.878;4.584;2023-03-14T09:22:59;2.83;;;2.38;;
37781;SDS011;23621;50.878;4.584;2023-03-14T09:25:26;3.75;;;2.33;;
37781;SDS011;23621;50.878;4.584;2023-03-14T09:27:53;3.80;;;2.40;;
37781;SDS011;23621;50.878;4.584;2023-03-14T09:30:20;3.35;;;1.95;;
37781;SDS011;23621;50.878;4.584;2023-03-14T09:33:06;2.58;;;2.30;;
37781;SDS011;23621;50.878;4.584;2023-03-14T09:35:33;2.60;;;2.00;;
37781;SDS011;23621;50.878;4.584;2023-03-14T09:38:19;2.47;;;2.20;;
37781;SDS011;23621;50.878;4.584;2023-03-14T09:40:47;2.72;;;2.20;;
37781;SDS011;23621;50.878;4.584;2023-03-14T09:43:15;3.88;;;2.40;;
37781;SDS011;23621;50.878;4.584;2023-03-14T09:45:42;3.92;;;2.35;;
37781;SDS011;23621;50.878;4.584;2023-03-14T09:48:16;3.15;;;2.85;;
37781;SDS011;23621;50.878;4.584;2023-03-14T09:50:51;5.47;;;2.67;;
37781;SDS011;23621;50.878;4.584;2023-03-14T09:53:23;5.38;;;2.70;;
37781;SDS011;23621;50.878;4.584;2023-03-14T09:55:57;3.95;;;2.50;;
37781;SDS011;23621;50.878;4.584;2023-03-14T09:58:25;6.63;;;3.15;;
37781;SDS011;23621;50.878;4.584;2023-03-14T10:00:54;6.13;;;2.90;;
37781;SDS011;23621;50.878;4.584;2023-03-14T10:03:29;5.60;;;2.83;;
37781;SDS011;23621;50.878;4.584;2023-03-14T10:05:59;6.32;;;2.55;;
37781;SDS011;23621;50.878;4.584;2023-03-14T10:08:27;6.65;;;3.10;;
37781;SDS011;23621;50.878;4.584;2023-03-14T10:10:54;6.40;;;2.97;;
37781;SDS011;23621;50.878;4.584;2023-03-14T10:13:25;4.50;;;2.85;;
37781;SDS011;23621;50.878;4.584;2023-03-14T10:16:01;5.65;;;2.65;;
37781;SDS011;23621;50.878;4.584;2023-03-14T10:18:30;5.38;;;3.10;;
37781;SDS011;23621;50.878;4.584;2023-03-14T10:21:28;4.05;;;2.53;;
37781;SDS011;23621;50.878;4.584;2023-03-14T10:26:53;7.50;;;2.60;;
37781;SDS011;23621;50.878;4.584;2023-03-14T10:29:24;3.72;;;2.30;;
37781;SDS011;23621;50.878;4.584;2023-03-14T10:31:52;7.00;;;2.40;;
37781;SDS011;23621;50.878;4.584;2023-03-14T10:34:39;3.53;;;2.20;;
37781;SDS011;23621;50.878;4.584;2023-03-14T10:37:07;3.15;;;1.88;;
37781;SDS011;23621;50.878;4.584;2023-03-14T10:39:51;2.55;;;1.70;;
37781;SDS011;23621;50.878;4.584;2023-03-14T10:48:06;2.40;;;1.30;;
37781;SDS011;23621;50.878;4.584;2023-03-14T10:53:47;3.40;;;1.75;;
37781;SDS011;23621;50.878;4.584;2023-03-14T10:56:35;1.60;;;1.30;;
37781;SDS011;23621;50.878;4.584;2023-03-14T10:59:03;3.47;;;1.42;;
37781;SDS011;23621;50.878;4.584;2023-03-14T11:10:42;1.83;;;1.50;;
37781;SDS011;23621;50.878;4.584;2023-03-14T11:13:33;3.45;;;1.38;;
37781;SDS011;23621;50.878;4.584;2023-03-14T11:21:44;2.20;;;1.38;;
37781;SDS011;23621;50.878;4.584;2023-03-14T11:24:39;1.50;;;1.38;;
37781;SDS011;23621;50.878;4.584;2023-03-14T11:33:40;2.42;;;1.25;;
37781;SDS011;23621;50.878;4.584;2023-03-14T11:36:12;1.30;;;1.20;;
37781;SDS011;23621;50.878;4.584;2023-03-14T11:38:50;2.83;;;1.35;;
37781;SDS011;23621;50.878;4.584;2023-03-14T11:41:22;1.85;;;1.00;;
37781;SDS011;23621;50.878;4.584;2023-03-14T11:43:59;1.55;;;1.25;;
37781;SDS011;23621;50.878;4.584;2023-03-14T11:46:34;2.05;;;1.38;;
37781;SDS011;23621;50.878;4.584;2023-03-14T11:49:11;1.40;;;1.30;;
37781;SDS011;23621;50.878;4.584;2023-03-14T11:51:46;1.23;;;1.10;;
37781;SDS011;23621;50.878;4.584;2023-03-14T11:57:24;1.00;;;1.00;;
37781;SDS011;23621;50.878;4.584;2023-03-14T12:05:39;1.30;;;1.10;;
37781;SDS011;23621;50.878;4.584;2023-03-14T12:11:34;4.05;;;2.03;;
37781;SDS011;23621;50.878;4.584;2023-03-14T12:14:19;1.20;;;1.10;;
37781;SDS011;23621;50.878;4.584;2023-03-14T12:16:52;1.52;;;1.25;;
37781;SDS011;23621;50.878;4.584;2023-03-14T12:19:42;1.60;;;1.50;;
37781;SDS011;23621;50.878;4.584;2023-03-14T12:22:17;1.80;;;1.27;;
37781;SDS011;23621;50.878;4.584;2023-03-14T12:24:55;1.30;;;1.20;;
37781;SDS011;23621;50.878;4.584;2023-03-14T12:28:03;1.05;;;1.05;;
37781;SDS011;23621;50.878;4.584;2023-03-14T12:30:42;2.00;;;1.50;;
37781;SDS011;23621;50.878;4.584;2023-03-14T12:35:45;1.40;;;1.30;;
37781;SDS011;23621;50.878;4.584;2023-03-14T12:41:44;2.00;;;1.50;;
37781;SDS011;23621;50.878;4.584;2023-03-14T12:46:57;2.88;;;1.85;;
37781;SDS011;23621;50.878;4.584;2023-03-14T12:49:54;2.47;;;1.77;;
37781;SDS011;23621;50.878;4.584;2023-03-14T12:55:22;2.50;;;1.80;;
37781;SDS011;23621;50.878;4.584;2023-03-14T12:58:12;1.67;;;1.50;;
37781;SDS011;23621;50.878;4.584;2023-03-14T13:01:00;2.67;;;1.63;;
37781;SDS011;23621;50.878;4.584;2023-03-14T13:03:42;2.75;;;1.80;;
37781;SDS011;23621;50.878;4.584;2023-03-14T13:06:12;2.00;;;1.90;;
37781;SDS011;23621;50.878;4.584;2023-03-14T13:11:55;2.10;;;1.90;;
37781;SDS011;23621;50.878;4.584;2023-03-14T13:14:27;2.65;;;1.83;;
37781;SDS011;23621;50.878;4.584;2023-03-14T13:17:01;4.15;;;2.20;;
37781;SDS011;23621;50.878;4.584;2023-03-14T13:19:53;2.08;;;1.83;;
37781;SDS011;23621;50.878;4.584;2023-03-14T13:22:27;2.28;;;1.90;;
37781;SDS011;23621;50.878;4.584;2023-03-14T13:25:04;2.80;;;1.90;;
37781;SDS011;23621;50.878;4.584;2023-03-14T13:27:33;1.92;;;1.63;;
37781;SDS011;23621;50.878;4.584;2023-03-14T13:30:44;2.15;;;1.60;;
37781;SDS011;23621;50.878;4.584;2023-03-14T13:33:29;2.65;;;1.60;;
37781;SDS011;23621;50.878;4.584;2023-03-14T13:35:59;2.90;;;1.92;;
37781;SDS011;23621;50.878;4.584;2023-03-14T13:38:54;2.22;;;1.70;;
37781;SDS011;23621;50.878;4.584;2023-03-14T13:41:32;2.35;;;1.75;;
37781;SDS011;23621;50.878;4.584;2023-03-14T13:44:02;5.07;;;1.83;;
37781;SDS011;23621;50.878;4.584;2023-03-14T13:46:51;2.15;;;1.70;;
37781;SDS011;23621;50.878;4.584;2023-03-14T13:49:24;2.67;;;2.00;;
37781;SDS011;23621;50.878;4.584;2023-03-14T13:51:52;6.95;;;1.75;;
37781;SDS011;23621;50.878;4.584;2023-03-14T13:54:21;4.75;;;2.38;;
37781;SDS011;23621;50.878;4.584;2023-03-14T13:56:49;3.78;;;2.25;;
37781;SDS011;23621;50.878;4.584;2023-03-14T13:59:27;3.85;;;1.80;;
37781;SDS011;23621;50.878;4.584;2023-03-14T14:01:56;3.92;;;1.85;;
37781;SDS011;23621;50.878;4.584;2023-03-14T14:04:25;4.13;;;1.92;;
37781;SDS011;23621;50.878;4.584;2023-03-14T14:06:59;4.18;;;2.10;;
37781;SDS011;23621;50.878;4.584;2023-03-14T14:09:35;4.82;;;1.88;;
37781;SDS011;23621;50.878;4.584;2023-03-14T14:12:16;7.15;;;2.40;;
37781;SDS011;23621;50.878;4.584;2023-03-14T14:17:28;6.63;;;2.30;;
37781;SDS011;23621;50.878;4.584;2023-03-14T14:20:10;5.57;;;2.70;;
37781;SDS011;23621;50.878;4.584;2023-03-14T14:22:58;5.55;;;2.55;;
37781;SDS011;23621;50.878;4.584;2023-03-14T14:25:28;6.88;;;2.55;;
37781;SDS011;23621;50.878;4.584;2023-03-14T14:27:56;6.50;;;2.40;;
37781;SDS011;23621;50.878;4.584;2023-03-14T14:30:25;7.53;;;2.72;;
37781;SDS011;23621;50.878;4.584;2023-03-14T14:33:17;6.90;;;3.00;;
37781;SDS011;23621;50.878;4.584;2023-03-14T14:38:41;8.25;;;3.00;;
37781;SDS011;23621;50.878;4.584;2023-03-14T14:41:10;12.80;;;3.00;;
37781;SDS011;23621;50.878;4.584;2023-03-14T14:43:56;10.15;;;3.03;;
37781;SDS011;23621;50.878;4.584;2023-03-14T14:46:26;13.27;;;3.67;;
37781;SDS011;23621;50.878;4.584;2023-03-14T14:49:18;8.40;;;2.40;;
37781;SDS011;23621;50.878;4.584;2023-03-14T14:51:49;6.40;;;2.50;;
37781;SDS011;23621;50.878;4.584;2023-03-14T14:54:44;4.05;;;1.80;;
37781;SDS011;23621;50.878;4.584;2023-03-14T14:57:17;4.15;;;1.30;;
37781;SDS011;23621;50.878;4.584;2023-03-14T14:59:47;3.25;;;1.42;;
37781;SDS011;23621;50.878;4.584;2023-03-14T15:02:38;2.65;;;1.40;;
37781;SDS011;23621;50.878;4.584;2023-03-14T15:05:17;2.70;;;1.48;;
37781;SDS011;23621;50.878;4.584;2023-03-14T15:07:46;2.33;;;1.05;;
37781;SDS011;23621;50.878;4.584;2023-03-14T15:10:17;2.47;;;1.00;;
37781;SDS011;23621;50.878;4.584;2023-03-14T15:12:48;3.58;;;1.40;;
37781;SDS011;23621;50.878;4.584;2023-03-14T15:15:16;1.30;;;1.20;;
37781;SDS011;23621;50.878;4.584;2023-03-14T15:17:43;3.45;;;1.20;;
37781;SDS011;23621;50.878;4.584;2023-03-14T15:20:15;2.78;;;1.10;;
37781;SDS011;23621;50.878;4.584;2023-03-14T15:22:44;3.15;;;1.42;;
37781;SDS011;23621;50.878;4.584;2023-03-14T15:25:12;1.42;;;1.20;;
37781;SDS011;23621;50.878;4.584;2023-03-14T15:27:59;1.58;;;1.02;;
37781;SDS011;23621;50.878;4.584;2023-03-14T15:30:26;3.88;;;1.30;;
37781;SDS011;23621;50.878;4.584;2023-03-14T15:32:53;2.55;;;1.42;;
37781;SDS011;23621;50.878;4.584;2023-03-14T15:35:20;1.50;;;1.20;;
37781;SDS011;23621;50.878;4.584;2023-03-14T15:37:47;1.77;;;1.30;;
37781;SDS011;23621;50.878;4.584;2023-03-14T15:40:15;3.60;;;1.40;;
37781;SDS011;23621;50.878;4.584;2023-03-14T15:42:42;2.95;;;1.40;;
37781;SDS011;23621;50.878;4.584;2023-03-14T15:45:09;2.45;;;1.30;;
37781;SDS011;23621;50.878;4.584;2023-03-14T15:47:36;0.98;;;0.98;;
37781;SDS011;23621;50.878;4.584;2023-03-14T15:50:04;2.92;;;1.08;;
37781;SDS011;23621;50.878;4.584;2023-03-14T15:52:31;3.63;;;1.20;;
37781;SDS011;23621;50.878;4.584;2023-03-14T15:54:58;2.35;;;1.35;;
37781;SDS011;23621;50.878;4.584;2023-03-14T15:57:26;1.90;;;1.40;;
37781;SDS011;23621;50.878;4.584;2023-03-14T15:59:53;4.05;;;1.25;;
37781;SDS011;23621;50.878;4.584;2023-03-14T16:02:20;2.00;;;1.50;;
37781;SDS011;23621;50.878;4.584;2023-03-14T16:04:50;1.40;;;1.30;;
37781;SDS011;23621;50.878;4.584;2023-03-14T16:07:17;2.65;;;1.45;;
37781;SDS011;23621;50.878;4.584;2023-03-14T16:09:44;1.45;;;1.30;;
37781;SDS011;23621;50.878;4.584;2023-03-14T16:12:11;4.13;;;1.58;;
37781;SDS011;23621;50.878;4.584;2023-03-14T16:14:38;2.13;;;1.50;;
37781;SDS011;23621;50.878;4.584;2023-03-14T16:17:09;4.22;;;1.42;;
37781;SDS011;23621;50.878;4.584;2023-03-14T16:19:38;5.03;;;1.65;;
37781;SDS011;23621;50.878;4.584;2023-03-14T16:22:06;5.00;;;1.83;;
37781;SDS011;23621;50.878;4.584;2023-03-14T16:24:33;5.80;;;1.88;;
37781;SDS011;23621;50.878;4.584;2023-03-14T16:27:00;4.93;;;1.80;;
37781;SDS011;23621;50.878;4.584;2023-03-14T16:29:27;4.68;;;1.90;;